createdAt,value
2023-04-16T00:00:48.338Z,6.04
2023-04-16T00:03:14.727Z,5.92
2023-04-16T00:05:41.153Z,5.83
2023-04-16T00:08:07.489Z,5.90
2023-04-16T00:10:33.810Z,5.96
2023-04-16T00:13:00.118Z,6.01
2023-04-16T00:15:26.434Z,6.04
2023-04-16T00:17:52.831Z,6.03
2023-04-16T00:20:19.208Z,6.14
2023-04-16T00:22:45.521Z,6.19
2023-04-16T00:25:11.843Z,6.20
2023-04-16T00:27:38.177Z,6.25
2023-04-16T00:30:04.506Z,6.28
2023-04-16T00:32:30.911Z,6.36
2023-04-16T00:34:57.255Z,6.45
2023-04-16T00:37:23.565Z,6.46
2023-04-16T00:39:49.877Z,6.44
2023-04-16T00:42:16.220Z,6.48
2023-04-16T00:44:42.529Z,6.46
2023-04-16T00:47:08.860Z,6.40
2023-04-16T00:49:35.200Z,6.36
2023-04-16T00:52:01.516Z,6.35
2023-04-16T00:54:27.813Z,6.43
2023-04-16T00:56:54.121Z,6.42
2023-04-16T00:59:20.454Z,6.43
2023-04-16T01:01:46.856Z,6.38
2023-04-16T01:04:13.347Z,6.35
2023-04-16T01:06:39.684Z,6.35
2023-04-16T01:09:05.997Z,6.41
2023-04-16T01:11:32.296Z,6.41
2023-04-16T01:13:58.628Z,6.45
2023-04-16T01:16:24.985Z,6.47
2023-04-16T01:18:51.397Z,6.51
2023-04-16T01:21:17.702Z,6.55
2023-04-16T01:23:44.025Z,6.54
2023-04-16T01:26:10.350Z,6.51
2023-04-16T01:28:36.677Z,6.53
2023-04-16T01:31:03.032Z,6.58
2023-04-16T01:33:29.374Z,6.63
2023-04-16T01:35:55.697Z,6.63
2023-04-16T01:38:22.013Z,6.67
2023-04-16T01:40:48.338Z,6.67
2023-04-16T01:43:14.703Z,6.76
2023-04-16T01:45:41.030Z,6.76
2023-04-16T01:48:07.357Z,6.74
2023-04-16T01:50:33.673Z,6.72
2023-04-16T01:52:59.981Z,6.68
2023-04-16T01:55:26.285Z,6.69
2023-04-16T01:57:52.606Z,6.70
2023-04-16T02:00:18.972Z,6.68
2023-04-16T02:02:45.446Z,6.69
2023-04-16T02:05:11.862Z,6.74
2023-04-16T02:07:38.220Z,6.73
2023-04-16T02:10:04.553Z,6.73
2023-04-16T02:12:30.869Z,6.80
2023-04-16T02:14:57.183Z,6.77
2023-04-16T02:17:23.511Z,6.80
2023-04-16T02:19:49.858Z,6.81
2023-04-16T02:22:16.193Z,6.82
2023-04-16T02:24:42.530Z,6.83
2023-04-16T02:27:08.861Z,6.87
2023-04-16T02:29:35.189Z,6.84
2023-04-16T02:32:01.559Z,6.87
2023-04-16T02:34:27.982Z,6.90
2023-04-16T02:36:54.289Z,6.95
2023-04-16T02:39:20.616Z,6.93
2023-04-16T02:41:46.937Z,6.94
2023-04-16T02:44:13.278Z,6.94
2023-04-16T02:46:39.592Z,6.90
2023-04-16T02:49:05.935Z,6.91
2023-04-16T02:51:32.252Z,6.95
2023-04-16T02:53:58.562Z,6.96
2023-04-16T02:56:24.882Z,6.99
2023-04-16T02:58:51.205Z,6.94
2023-04-16T03:01:17.557Z,6.88
2023-04-16T03:03:43.885Z,6.90
2023-04-16T03:06:10.199Z,6.88
2023-04-16T03:08:36.515Z,6.88
2023-04-16T03:11:02.835Z,6.87
2023-04-16T03:13:29.135Z,6.92
2023-04-16T03:15:55.473Z,6.94
2023-04-16T03:18:21.783Z,6.88
2023-04-16T03:20:48.082Z,6.89
2023-04-16T03:23:14.409Z,6.89
2023-04-16T03:25:40.741Z,6.98
2023-04-16T03:28:07.060Z,6.98
2023-04-16T03:30:33.388Z,6.88
2023-04-16T03:32:59.794Z,6.84
2023-04-16T03:35:26.115Z,6.84
2023-04-16T03:37:52.415Z,6.83
2023-04-16T03:40:18.729Z,6.83
2023-04-16T03:42:45.027Z,6.83
2023-04-16T03:45:11.348Z,6.81
2023-04-16T03:47:37.674Z,6.84
2023-04-16T03:50:04.019Z,6.84
2023-04-16T03:52:30.332Z,6.80
2023-04-16T03:54:56.647Z,6.81
2023-04-16T03:57:22.960Z,6.82
2023-04-16T03:59:49.276Z,6.83
2023-04-16T04:02:15.689Z,6.88
2023-04-16T04:04:42.208Z,6.80
2023-04-16T04:07:08.602Z,6.83
2023-04-16T04:09:34.921Z,6.84
2023-04-16T04:12:01.254Z,6.81
2023-04-16T04:14:27.573Z,6.83
2023-04-16T04:16:53.873Z,6.82
2023-04-16T04:19:20.191Z,6.85
2023-04-16T04:21:46.505Z,6.83
2023-04-16T04:24:12.807Z,6.84
2023-04-16T04:26:39.124Z,6.82
2023-04-16T04:29:05.445Z,6.80
2023-04-16T04:31:31.804Z,6.76
2023-04-16T04:33:58.142Z,6.75
2023-04-16T04:36:24.448Z,6.80
2023-04-16T04:38:50.767Z,6.74
2023-04-16T04:41:17.070Z,6.77
2023-04-16T04:43:43.402Z,6.80
2023-04-16T04:46:09.756Z,6.82
2023-04-16T04:48:36.121Z,6.82
2023-04-16T04:51:04.730Z,6.81
2023-04-16T04:53:31.445Z,6.83
2023-04-16T04:56:08.984Z,6.78
2023-04-16T04:58:38.332Z,6.81
2023-04-16T05:01:04.668Z,6.78
2023-04-16T05:03:31.089Z,6.75
2023-04-16T05:05:57.472Z,6.76
2023-04-16T05:08:23.802Z,6.75
2023-04-16T05:10:50.126Z,6.76
2023-04-16T05:13:16.450Z,6.76
2023-04-16T05:15:42.757Z,6.76
2023-04-16T05:18:09.088Z,6.80
2023-04-16T05:20:35.402Z,6.83
2023-04-16T05:23:01.725Z,6.83
2023-04-16T05:25:28.116Z,6.91
2023-04-16T05:27:54.449Z,6.89
2023-04-16T05:30:20.773Z,6.88
2023-04-16T05:32:47.110Z,6.92
2023-04-16T05:35:15.235Z,6.96
2023-04-16T05:37:43.090Z,6.96
2023-04-16T05:40:09.436Z,6.98
2023-04-16T05:42:35.745Z,6.97
2023-04-16T05:45:02.077Z,6.98
2023-04-16T05:47:28.411Z,7.00
2023-04-16T05:49:54.748Z,7.01
2023-04-16T05:52:21.058Z,7.02
2023-04-16T05:54:47.380Z,7.01
2023-04-16T05:57:13.697Z,7.05
2023-04-16T05:59:40.020Z,7.05
2023-04-16T06:02:06.383Z,7.07
2023-04-16T06:04:32.717Z,7.08
2023-04-16T06:06:59.028Z,7.14
2023-04-16T06:09:25.334Z,7.15
2023-04-16T06:11:51.644Z,7.15
2023-04-16T06:14:17.966Z,7.18
2023-04-16T06:16:44.302Z,7.22
2023-04-16T06:19:10.761Z,7.27
2023-04-16T06:21:37.212Z,7.26
2023-04-16T06:24:03.519Z,7.28
2023-04-16T06:26:29.829Z,7.32
2023-04-16T06:28:56.152Z,7.36
2023-04-16T06:31:22.506Z,7.48
2023-04-16T06:33:48.843Z,7.52
2023-04-16T06:36:15.155Z,7.57
2023-04-16T06:38:41.458Z,7.59
2023-04-16T06:41:07.784Z,7.65
2023-04-16T06:43:34.101Z,7.63
2023-04-16T06:46:00.426Z,7.67
2023-04-16T06:48:26.730Z,7.64
2023-04-16T06:50:53.043Z,7.70
2023-04-16T06:53:19.346Z,7.76
2023-04-16T06:55:45.677Z,7.84
2023-04-16T06:58:11.981Z,7.88
2023-04-16T07:00:38.363Z,7.91
2023-04-16T07:03:04.833Z,7.92
2023-04-16T07:05:31.284Z,7.99
2023-04-16T07:07:57.580Z,7.99
2023-04-16T07:10:23.918Z,8.04
2023-04-16T07:12:50.231Z,8.09
2023-04-16T07:15:16.558Z,8.19
2023-04-16T07:17:42.909Z,8.33
2023-04-16T07:20:09.230Z,8.15
2023-04-16T07:22:35.533Z,8.14
2023-04-16T07:25:01.868Z,8.15
2023-04-16T07:27:28.201Z,8.16
2023-04-16T07:29:54.528Z,8.20
2023-04-16T07:32:21.010Z,8.26
2023-04-16T07:34:47.461Z,8.32
2023-04-16T07:37:13.786Z,8.30
2023-04-16T07:39:40.113Z,8.34
2023-04-16T07:42:06.433Z,8.39
2023-04-16T07:44:32.745Z,8.41
2023-04-16T07:46:59.131Z,8.50
2023-04-16T07:49:25.463Z,8.49
2023-04-16T07:51:51.757Z,8.56
2023-04-16T07:54:18.076Z,8.71
2023-04-16T07:56:44.400Z,8.62
2023-04-16T07:59:22.089Z,8.64
2023-04-16T08:01:49.686Z,8.63
2023-04-16T08:04:16.229Z,8.52
2023-04-16T08:06:42.705Z,8.56
2023-04-16T08:09:09.334Z,8.59
2023-04-16T08:11:35.772Z,8.63
2023-04-16T08:14:02.073Z,8.65
2023-04-16T08:16:28.379Z,8.65
2023-04-16T08:18:54.711Z,8.75
2023-04-16T08:21:21.020Z,8.86
2023-04-16T08:23:47.327Z,8.92
2023-04-16T08:26:13.633Z,8.90
2023-04-16T08:28:39.952Z,8.86
2023-04-16T08:31:06.305Z,8.94
2023-04-16T08:33:32.624Z,9.17
2023-04-16T08:35:58.946Z,9.32
2023-04-16T08:38:25.255Z,9.37
2023-04-16T08:40:51.557Z,9.38
2023-04-16T08:43:17.847Z,9.49
2023-04-16T08:45:44.149Z,9.49
2023-04-16T08:48:10.509Z,9.53
2023-04-16T08:50:36.821Z,9.57
2023-04-16T08:53:03.138Z,9.55
2023-04-16T08:55:29.461Z,9.57
2023-04-16T08:57:55.777Z,9.57
2023-04-16T09:00:22.075Z,9.50
2023-04-16T09:02:48.589Z,9.40
2023-04-16T09:05:15.126Z,9.33
2023-04-16T09:07:41.453Z,9.40
2023-04-16T09:10:07.781Z,9.48
2023-04-16T09:12:34.085Z,9.48
2023-04-16T09:15:00.391Z,9.51
2023-04-16T09:17:26.746Z,9.50
2023-04-16T09:19:53.069Z,9.46
2023-04-16T09:22:19.378Z,9.43
2023-04-16T09:24:45.692Z,9.57
2023-04-16T09:27:12.021Z,9.47
2023-04-16T09:29:38.376Z,9.42
2023-04-16T09:32:04.837Z,9.38
2023-04-16T09:34:31.197Z,9.37
2023-04-16T09:36:57.515Z,9.29
2023-04-16T09:39:23.817Z,9.33
2023-04-16T09:41:50.169Z,9.42
2023-04-16T09:44:16.477Z,9.39
2023-04-16T09:46:42.790Z,9.36
2023-04-16T09:49:09.243Z,9.38
2023-04-16T09:51:35.755Z,9.35
2023-04-16T09:54:02.078Z,9.54
2023-04-16T09:56:28.399Z,9.45
2023-04-16T09:58:54.689Z,9.43
2023-04-16T10:01:21.047Z,9.39
2023-04-16T10:03:47.556Z,9.45
2023-04-16T10:06:14.014Z,9.36
2023-04-16T10:08:40.326Z,9.35
2023-04-16T10:11:06.632Z,9.33
2023-04-16T10:13:32.939Z,9.25
2023-04-16T10:15:59.242Z,9.15
2023-04-16T10:18:25.542Z,9.20
2023-04-16T10:20:51.842Z,9.26
2023-04-16T10:23:19.212Z,9.34
2023-04-16T10:25:45.533Z,9.40
2023-04-16T10:28:11.856Z,9.29
2023-04-16T10:30:38.212Z,9.36
2023-04-16T10:33:04.548Z,9.29
2023-04-16T10:35:30.910Z,9.22
2023-04-16T10:37:57.245Z,9.21
2023-04-16T10:40:23.551Z,9.30
2023-04-16T10:42:49.885Z,9.30
2023-04-16T10:45:16.223Z,9.40
2023-04-16T10:47:42.591Z,9.37
2023-04-16T10:50:08.928Z,9.36
2023-04-16T10:52:35.246Z,9.29
2023-04-16T10:55:01.560Z,9.19
2023-04-16T10:57:27.877Z,9.27
2023-04-16T10:59:54.185Z,9.29
2023-04-16T11:02:20.662Z,9.33
2023-04-16T11:04:47.475Z,9.31
2023-04-16T11:07:13.909Z,9.30
2023-04-16T11:09:40.230Z,9.40
2023-04-16T11:12:06.553Z,9.42
2023-04-16T11:14:32.863Z,9.50
2023-04-16T11:16:59.191Z,9.62
2023-04-16T11:19:25.500Z,9.65
2023-04-16T11:21:51.821Z,9.82
2023-04-16T11:24:18.125Z,10.07
2023-04-16T11:26:44.463Z,10.12
2023-04-16T11:29:11.061Z,10.15
2023-04-16T11:31:37.536Z,10.27
2023-04-16T11:34:03.851Z,10.33
2023-04-16T11:36:30.157Z,10.31
2023-04-16T11:38:56.486Z,10.34
2023-04-16T11:41:22.796Z,10.40
2023-04-16T11:43:49.106Z,10.35
2023-04-16T11:46:26.773Z,10.39
2023-04-16T11:48:53.946Z,10.39
2023-04-16T11:51:20.255Z,10.44
2023-04-16T11:53:46.560Z,10.25
2023-04-16T11:56:12.880Z,10.23
2023-04-16T11:58:42.403Z,10.10
2023-04-16T12:01:09.795Z,10.18
2023-04-16T12:03:36.334Z,10.18
2023-04-16T12:06:02.890Z,10.17
2023-04-16T12:08:29.211Z,9.98
2023-04-16T12:10:55.584Z,10.09
2023-04-16T12:13:21.926Z,10.06
2023-04-16T12:15:48.255Z,10.07
2023-04-16T12:18:14.573Z,10.22
2023-04-16T12:20:40.894Z,10.23
2023-04-16T12:23:07.203Z,10.34
2023-04-16T12:25:33.527Z,10.28
2023-04-16T12:27:59.859Z,10.26
2023-04-16T12:30:26.231Z,10.26
2023-04-16T12:32:52.841Z,10.20
2023-04-16T12:35:19.259Z,10.28
2023-04-16T12:37:45.576Z,10.39
2023-04-16T12:40:11.905Z,10.37
2023-04-16T12:42:38.222Z,10.35
2023-04-16T12:45:04.542Z,10.42
2023-04-16T12:47:30.896Z,10.52
2023-04-16T12:49:57.226Z,10.64
2023-04-16T12:52:23.873Z,10.65
2023-04-16T12:54:50.249Z,10.60
2023-04-16T12:57:16.580Z,10.78
2023-04-16T12:59:42.917Z,10.78
2023-04-16T13:02:09.329Z,10.90
2023-04-16T13:04:35.775Z,10.86
2023-04-16T13:07:02.117Z,11.04
2023-04-16T13:09:28.421Z,11.25
2023-04-16T13:11:54.734Z,11.27
2023-04-16T13:14:21.057Z,11.35
2023-04-16T13:16:47.368Z,11.20
2023-04-16T13:19:13.728Z,11.23
2023-04-16T13:21:40.130Z,11.24
2023-04-16T13:24:06.460Z,11.20
2023-04-16T13:26:32.768Z,11.25
2023-04-16T13:28:59.076Z,11.18
2023-04-16T13:31:25.463Z,11.17
2023-04-16T13:33:51.804Z,11.04
2023-04-16T13:36:18.133Z,11.04
2023-04-16T13:38:44.445Z,10.97
2023-04-16T13:41:10.763Z,10.92
2023-04-16T13:43:37.071Z,10.96
2023-04-16T13:46:03.391Z,11.06
2023-04-16T13:48:29.725Z,11.04
2023-04-16T13:50:56.066Z,11.00
2023-04-16T13:53:22.385Z,11.06
2023-04-16T13:55:48.698Z,11.09
2023-04-16T13:58:15.041Z,11.08
2023-04-16T14:00:41.364Z,11.02
2023-04-16T14:03:07.739Z,11.16
2023-04-16T14:05:34.094Z,11.12
2023-04-16T14:08:00.419Z,11.30
2023-04-16T14:10:26.741Z,11.37
2023-04-16T14:12:53.044Z,11.60
2023-04-16T14:15:19.372Z,11.46
2023-04-16T14:17:45.722Z,11.48
2023-04-16T14:20:12.081Z,11.46
2023-04-16T14:22:38.411Z,11.39
2023-04-16T14:25:04.750Z,11.39
2023-04-16T14:27:31.078Z,11.53
2023-04-16T14:29:57.381Z,11.59
2023-04-16T14:32:23.760Z,11.56
2023-04-16T14:34:50.083Z,11.56
2023-04-16T14:37:16.411Z,11.61
2023-04-16T14:39:42.713Z,11.65
2023-04-16T14:42:09.021Z,11.55
2023-04-16T14:44:35.333Z,11.49
2023-04-16T14:47:01.642Z,11.49
2023-04-16T14:49:27.979Z,11.42
2023-04-16T14:51:54.306Z,11.29
2023-04-16T14:54:20.630Z,11.14
2023-04-16T14:56:46.962Z,11.17
2023-04-16T14:59:13.285Z,11.10
2023-04-16T15:01:39.735Z,11.12
2023-04-16T15:04:06.305Z,11.17
2023-04-16T15:06:32.731Z,11.12
2023-04-16T15:08:59.064Z,10.96
2023-04-16T15:11:25.375Z,10.85
2023-04-16T15:13:51.684Z,10.87
2023-04-16T15:16:18.059Z,10.80
2023-04-16T15:18:44.386Z,10.60
2023-04-16T15:21:12.410Z,10.63
2023-04-16T15:23:39.076Z,10.61
2023-04-16T15:26:05.392Z,10.63
2023-04-16T15:28:31.730Z,10.62
2023-04-16T15:30:58.102Z,10.69
2023-04-16T15:33:24.449Z,10.67
2023-04-16T15:35:50.779Z,10.55
2023-04-16T15:38:17.098Z,10.52
2023-04-16T15:40:43.405Z,10.51
2023-04-16T15:43:09.737Z,10.51
2023-04-16T15:45:36.060Z,10.36
2023-04-16T15:48:02.437Z,10.09
2023-04-16T15:50:28.777Z,10.11
2023-04-16T15:52:55.100Z,10.05
2023-04-16T15:55:21.419Z,9.99
2023-04-16T15:57:47.740Z,9.90
2023-04-16T16:00:14.176Z,9.94
2023-04-16T16:02:40.806Z,9.76
2023-04-16T16:05:07.251Z,9.76
2023-04-16T16:07:33.570Z,9.73
2023-04-16T16:09:59.905Z,9.80
2023-04-16T16:12:26.218Z,9.77
2023-04-16T16:14:52.541Z,9.54
2023-04-16T16:17:18.897Z,9.57
2023-04-16T16:19:46.461Z,9.69
2023-04-16T16:22:12.982Z,9.51
2023-04-16T16:24:39.307Z,9.58
2023-04-16T16:27:05.635Z,9.55
2023-04-16T16:29:31.952Z,9.67
2023-04-16T16:31:58.329Z,9.62
2023-04-16T16:34:24.674Z,9.73
2023-04-16T16:36:51.037Z,9.65
2023-04-16T16:39:17.356Z,9.63
2023-04-16T16:41:43.673Z,9.71
2023-04-16T16:44:09.997Z,9.67
2023-04-16T16:46:36.320Z,9.58
2023-04-16T16:49:02.681Z,9.58
2023-04-16T16:51:29.013Z,9.60
2023-04-16T16:53:55.329Z,9.52
2023-04-16T16:56:21.659Z,9.49
2023-04-16T16:58:47.974Z,9.52
2023-04-16T17:01:14.376Z,9.42
2023-04-16T17:03:40.850Z,9.29
2023-04-16T17:06:07.177Z,9.27
2023-04-16T17:08:33.485Z,9.25
2023-04-16T17:10:59.813Z,9.27
2023-04-16T17:13:26.132Z,9.28
2023-04-16T17:15:52.447Z,9.30
2023-04-16T17:18:18.776Z,9.31
2023-04-16T17:20:45.094Z,9.23
2023-04-16T17:23:11.418Z,9.22
2023-04-16T17:25:37.754Z,9.22
2023-04-16T17:28:04.068Z,9.33
2023-04-16T17:30:30.389Z,9.32
2023-04-16T17:32:56.733Z,9.32
2023-04-16T17:35:23.116Z,9.20
2023-04-16T17:37:49.436Z,9.19
2023-04-16T17:40:15.758Z,9.15
2023-04-16T17:42:42.076Z,9.09
2023-04-16T17:45:08.393Z,9.02
2023-04-16T17:47:34.718Z,9.06
2023-04-16T17:50:01.037Z,9.02
2023-04-16T17:52:27.352Z,9.05
2023-04-16T17:54:53.659Z,9.14
2023-04-16T17:57:19.962Z,9.17
2023-04-16T17:59:46.288Z,9.23
2023-04-16T18:02:12.702Z,9.20
2023-04-16T18:04:39.191Z,9.23
2023-04-16T18:07:05.573Z,9.17
2023-04-16T18:09:31.907Z,9.16
2023-04-16T18:11:58.213Z,8.99
2023-04-16T18:14:24.518Z,9.00
2023-04-16T18:16:50.856Z,8.97
2023-04-16T18:19:17.189Z,9.02
2023-04-16T18:21:43.503Z,9.15
2023-04-16T18:24:10.036Z,9.17
2023-04-16T18:26:37.425Z,9.02
2023-04-16T18:29:04.112Z,9.04
2023-04-16T18:31:30.535Z,9.16
2023-04-16T18:33:58.397Z,8.93
2023-04-16T18:36:24.993Z,8.85
2023-04-16T18:39:00.802Z,8.82
2023-04-16T18:41:28.336Z,8.75
2023-04-16T18:43:54.707Z,8.78
2023-04-16T18:46:21.073Z,8.75
2023-04-16T18:48:47.411Z,8.69
2023-04-16T18:51:15.449Z,8.59
2023-04-16T18:53:42.559Z,8.56
2023-04-16T18:56:08.891Z,8.57
2023-04-16T18:58:35.221Z,8.53
2023-04-16T19:01:01.572Z,8.50
2023-04-16T19:03:28.059Z,8.44
2023-04-16T19:05:54.393Z,8.43
2023-04-16T19:08:20.731Z,8.36
2023-04-16T19:10:47.052Z,8.40
2023-04-16T19:13:13.372Z,8.45
2023-04-16T19:15:39.686Z,8.48
2023-04-16T19:18:06.011Z,8.57
2023-04-16T19:20:32.327Z,8.52
2023-04-16T19:22:58.640Z,8.57
2023-04-16T19:25:24.944Z,8.49
2023-04-16T19:27:51.280Z,8.55
2023-04-16T19:30:17.629Z,8.65
2023-04-16T19:32:43.977Z,8.72
2023-04-16T19:35:10.289Z,8.70
2023-04-16T19:37:36.616Z,8.70
2023-04-16T19:40:02.935Z,8.71
2023-04-16T19:42:29.247Z,8.73
2023-04-16T19:44:55.567Z,8.78
2023-04-16T19:47:21.909Z,8.79
2023-04-16T19:49:48.225Z,8.77
2023-04-16T19:52:14.522Z,8.66
2023-04-16T19:54:40.845Z,8.62
2023-04-16T19:57:07.149Z,8.73
2023-04-16T19:59:33.452Z,8.66
2023-04-16T20:01:59.803Z,8.57
2023-04-16T20:04:26.170Z,8.58
2023-04-16T20:06:52.505Z,8.63
2023-04-16T20:09:18.820Z,8.70
2023-04-16T20:11:45.121Z,8.70
2023-04-16T20:14:11.436Z,8.58
2023-04-16T20:16:37.785Z,8.55
2023-04-16T20:19:06.461Z,8.58
2023-04-16T20:21:34.379Z,8.39
2023-04-16T20:24:00.713Z,8.38
2023-04-16T20:26:27.028Z,8.29
2023-04-16T20:28:53.337Z,8.44
2023-04-16T20:31:19.710Z,8.32
2023-04-16T20:33:46.054Z,8.32
2023-04-16T20:36:12.375Z,8.37
2023-04-16T20:38:38.681Z,8.29
2023-04-16T20:41:05.002Z,8.22
2023-04-16T20:43:31.322Z,8.20
2023-04-16T20:45:57.699Z,8.19
2023-04-16T20:48:24.048Z,8.23
2023-04-16T20:50:50.408Z,8.14
2023-04-16T20:53:16.728Z,8.16
2023-04-16T20:55:43.063Z,8.26
2023-04-16T20:58:09.378Z,8.30
2023-04-16T21:00:35.702Z,8.41
2023-04-16T21:03:02.175Z,8.42
2023-04-16T21:05:28.580Z,8.29
2023-04-16T21:07:55.935Z,8.23
2023-04-16T21:10:22.299Z,8.28
2023-04-16T21:12:48.608Z,8.29
2023-04-16T21:15:14.926Z,8.28
2023-04-16T21:17:41.285Z,8.26
2023-04-16T21:20:07.661Z,8.27
2023-04-16T21:22:33.993Z,8.20
2023-04-16T21:25:00.302Z,8.29
2023-04-16T21:27:26.627Z,8.21
2023-04-16T21:29:52.958Z,8.06
2023-04-16T21:32:19.280Z,8.15
2023-04-16T21:34:45.583Z,8.09
2023-04-16T21:37:11.900Z,8.02
2023-04-16T21:39:38.478Z,8.03
2023-04-16T21:42:04.793Z,8.24
2023-04-16T21:44:31.111Z,8.15
2023-04-16T21:46:57.463Z,8.11
2023-04-16T21:49:23.816Z,8.19
2023-04-16T21:51:50.109Z,8.24
2023-04-16T21:54:16.428Z,8.17
2023-04-16T21:56:42.727Z,8.22
2023-04-16T21:59:09.186Z,8.26
2023-04-16T22:01:35.621Z,8.30
2023-04-16T22:04:02.064Z,8.20
2023-04-16T22:06:28.439Z,8.22
2023-04-16T22:08:54.764Z,8.15
2023-04-16T22:11:21.081Z,8.19
2023-04-16T22:13:47.380Z,8.27
2023-04-16T22:16:13.824Z,8.24
2023-04-16T22:18:40.182Z,8.23
2023-04-16T22:21:06.485Z,8.29
2023-04-16T22:23:32.809Z,8.14
2023-04-16T22:25:59.116Z,8.24
2023-04-16T22:28:25.439Z,8.22
2023-04-16T22:30:51.773Z,8.16
2023-04-16T22:33:18.193Z,8.04
2023-04-16T22:35:44.649Z,7.99
2023-04-16T22:38:10.988Z,7.97
2023-04-16T22:40:37.343Z,7.91
2023-04-16T22:43:03.714Z,7.90
2023-04-16T22:45:30.048Z,7.87
2023-04-16T22:47:56.404Z,7.68
2023-04-16T22:50:22.753Z,7.69
2023-04-16T22:52:49.087Z,7.83
2023-04-16T22:55:15.409Z,7.78
2023-04-16T22:57:41.724Z,7.86
2023-04-16T23:00:08.065Z,7.90
2023-04-16T23:02:34.469Z,7.82
2023-04-16T23:05:00.880Z,7.75
2023-04-16T23:07:27.186Z,7.74
2023-04-16T23:09:53.509Z,7.83
2023-04-16T23:12:19.827Z,7.95
2023-04-16T23:14:46.218Z,7.95
2023-04-16T23:17:12.541Z,7.86
2023-04-16T23:19:38.855Z,7.87
2023-04-16T23:22:05.161Z,7.94
2023-04-16T23:24:31.486Z,8.00
2023-04-16T23:26:57.808Z,7.92
2023-04-16T23:29:24.148Z,7.85
2023-04-16T23:31:50.549Z,7.96
2023-04-16T23:34:17.028Z,7.86
2023-04-16T23:36:43.365Z,7.85
2023-04-16T23:39:09.896Z,7.89
2023-04-16T23:41:36.401Z,7.92
2023-04-16T23:44:02.722Z,7.87
2023-04-16T23:46:29.092Z,7.81
2023-04-16T23:48:55.502Z,7.78
2023-04-16T23:51:21.824Z,7.69
2023-04-16T23:53:48.140Z,7.69
2023-04-16T23:56:14.464Z,7.62
2023-04-16T23:58:40.790Z,7.53
